sensor_id;sensor_type;location;lat;lon;timestamp;temperature;humidity
72128;DHT22;60000;51.030;7.024;2023-08-06T00:00:21;15.46;86.35
72128;DHT22;60000;51.030;7.024;2023-08-06T00:02:46;15.46;86.45
72128;DHT22;60000;51.030;7.024;2023-08-06T00:05:12;15.43;86.47
72128;DHT22;60000;51.030;7.024;2023-08-06T00:07:37;15.46;86.53
72128;DHT22;60000;51.030;7.024;2023-08-06T00:10:03;15.43;86.60
72128;DHT22;60000;51.030;7.024;2023-08-06T00:12:28;15.39;86.63
72128;DHT22;60000;51.030;7.024;2023-08-06T00:14:53;15.39;86.63
72128;DHT22;60000;51.030;7.024;2023-08-06T00:17:19;15.36;86.54
72128;DHT22;60000;51.030;7.024;2023-08-06T00:19:44;15.33;86.62
72128;DHT22;60000;51.030;7.024;2023-08-06T00:22:10;15.31;86.71
72128;DHT22;60000;51.030;7.024;2023-08-06T00:24:35;15.26;86.72
72128;DHT22;60000;51.030;7.024;2023-08-06T00:27:01;15.23;86.77
72128;DHT22;60000;51.030;7.024;2023-08-06T00:29:26;15.22;86.84
72128;DHT22;60000;51.030;7.024;2023-08-06T00:31:52;15.19;86.96
72128;DHT22;60000;51.030;7.024;2023-08-06T00:34:17;15.14;87.01
72128;DHT22;60000;51.030;7.024;2023-08-06T00:36:42;15.14;87.07
72128;DHT22;60000;51.030;7.024;2023-08-06T00:39:08;15.12;87.13
72128;DHT22;60000;51.030;7.024;2023-08-06T00:41:33;15.06;87.21
72128;DHT22;60000;51.030;7.024;2023-08-06T00:43:58;15.04;87.31
72128;DHT22;60000;51.030;7.024;2023-08-06T00:46:24;15.03;87.32
72128;DHT22;60000;51.030;7.024;2023-08-06T00:48:50;15.00;87.45
72128;DHT22;60000;51.030;7.024;2023-08-06T00:51:16;14.98;87.53
72128;DHT22;60000;51.030;7.024;2023-08-06T00:53:42;14.96;87.61
72128;DHT22;60000;51.030;7.024;2023-08-06T00:56:08;14.95;87.70
72128;DHT22;60000;51.030;7.024;2023-08-06T00:58:35;14.89;87.86
72128;DHT22;60000;51.030;7.024;2023-08-06T01:01:00;14.91;87.97
72128;DHT22;60000;51.030;7.024;2023-08-06T01:03:26;14.86;88.09
72128;DHT22;60000;51.030;7.024;2023-08-06T01:05:51;14.86;88.16
72128;DHT22;60000;51.030;7.024;2023-08-06T01:08:46;14.85;88.31
72128;DHT22;60000;51.030;7.024;2023-08-06T01:14:23;14.81;88.52
72128;DHT22;60000;51.030;7.024;2023-08-06T01:16:52;14.79;88.63
72128;DHT22;60000;51.030;7.024;2023-08-06T01:19:18;14.78;88.75
72128;DHT22;60000;51.030;7.024;2023-08-06T01:21:44;14.76;88.81
72128;DHT22;60000;51.030;7.024;2023-08-06T01:24:09;14.78;88.88
72128;DHT22;60000;51.030;7.024;2023-08-06T01:26:50;14.76;89.01
72128;DHT22;60000;51.030;7.024;2023-08-06T01:31:50;14.81;89.12
72128;DHT22;60000;51.030;7.024;2023-08-06T01:34:28;14.81;89.18
72128;DHT22;60000;51.030;7.024;2023-08-06T01:36:54;14.81;89.18
72128;DHT22;60000;51.030;7.024;2023-08-06T01:39:19;14.81;89.19
72128;DHT22;60000;51.030;7.024;2023-08-06T01:41:47;14.79;89.23
72128;DHT22;60000;51.030;7.024;2023-08-06T01:44:12;14.81;89.21
72128;DHT22;60000;51.030;7.024;2023-08-06T01:46:37;14.79;89.25
72128;DHT22;60000;51.030;7.024;2023-08-06T01:49:03;14.76;89.30
72128;DHT22;60000;51.030;7.024;2023-08-06T01:51:28;14.76;89.33
72128;DHT22;60000;51.030;7.024;2023-08-06T01:53:53;14.75;89.34
72128;DHT22;60000;51.030;7.024;2023-08-06T01:56:19;14.72;89.33
72128;DHT22;60000;51.030;7.024;2023-08-06T01:58:44;14.71;89.42
72128;DHT22;60000;51.030;7.024;2023-08-06T02:01:09;14.69;89.50
72128;DHT22;60000;51.030;7.024;2023-08-06T02:03:34;14.65;89.47
72128;DHT22;60000;51.030;7.024;2023-08-06T02:06:00;14.64;89.50
72128;DHT22;60000;51.030;7.024;2023-08-06T02:08:27;14.61;89.65
72128;DHT22;60000;51.030;7.024;2023-08-06T02:10:52;14.60;89.75
72128;DHT22;60000;51.030;7.024;2023-08-06T02:13:18;14.55;89.80
72128;DHT22;60000;51.030;7.024;2023-08-06T02:15:45;14.52;89.91
72128;DHT22;60000;51.030;7.024;2023-08-06T02:18:13;14.51;89.94
72128;DHT22;60000;51.030;7.024;2023-08-06T02:20:38;14.46;90.05
72128;DHT22;60000;51.030;7.024;2023-08-06T02:23:03;14.45;90.13
72128;DHT22;60000;51.030;7.024;2023-08-06T02:25:29;14.46;90.31
72128;DHT22;60000;51.030;7.024;2023-08-06T02:27:54;14.45;90.47
72128;DHT22;60000;51.030;7.024;2023-08-06T02:30:19;14.46;90.56
72128;DHT22;60000;51.030;7.024;2023-08-06T02:32:45;14.49;90.69
72128;DHT22;60000;51.030;7.024;2023-08-06T02:35:10;14.51;90.64
72128;DHT22;60000;51.030;7.024;2023-08-06T02:37:35;14.54;90.65
72128;DHT22;60000;51.030;7.024;2023-08-06T02:40:01;14.57;90.62
72128;DHT22;60000;51.030;7.024;2023-08-06T02:42:27;14.60;90.58
72128;DHT22;60000;51.030;7.024;2023-08-06T02:44:53;14.61;90.54
72128;DHT22;60000;51.030;7.024;2023-08-06T02:47:20;14.64;90.47
72128;DHT22;60000;51.030;7.024;2023-08-06T02:49:46;14.67;90.44
72128;DHT22;60000;51.030;7.024;2023-08-06T02:52:11;14.69;90.30
72128;DHT22;60000;51.030;7.024;2023-08-06T02:54:36;14.72;90.22
72128;DHT22;60000;51.030;7.024;2023-08-06T02:57:01;14.75;90.11
72128;DHT22;60000;51.030;7.024;2023-08-06T02:59:27;14.76;89.95
72128;DHT22;60000;51.030;7.024;2023-08-06T03:01:52;14.78;89.80
72128;DHT22;60000;51.030;7.024;2023-08-06T03:04:17;14.81;89.69
72128;DHT22;60000;51.030;7.024;2023-08-06T03:06:43;14.86;89.58
72128;DHT22;60000;51.030;7.024;2023-08-06T03:09:08;14.86;89.46
72128;DHT22;60000;51.030;7.024;2023-08-06T03:11:34;14.88;89.40
72128;DHT22;60000;51.030;7.024;2023-08-06T03:13:59;14.88;89.33
72128;DHT22;60000;51.030;7.024;2023-08-06T03:16:24;14.89;89.29
72128;DHT22;60000;51.030;7.024;2023-08-06T03:18:50;14.89;89.19
72128;DHT22;60000;51.030;7.024;2023-08-06T03:21:15;14.91;89.14
72128;DHT22;60000;51.030;7.024;2023-08-06T03:23:40;14.92;89.17
72128;DHT22;60000;51.030;7.024;2023-08-06T03:26:06;14.96;89.13
72128;DHT22;60000;51.030;7.024;2023-08-06T03:28:31;14.95;89.21
72128;DHT22;60000;51.030;7.024;2023-08-06T03:31:02;14.98;89.16
72128;DHT22;60000;51.030;7.024;2023-08-06T03:33:28;14.96;89.12
72128;DHT22;60000;51.030;7.024;2023-08-06T03:35:53;14.99;89.05
72128;DHT22;60000;51.030;7.024;2023-08-06T03:38:19;14.99;89.03
72128;DHT22;60000;51.030;7.024;2023-08-06T03:40:45;15.00;89.08
72128;DHT22;60000;51.030;7.024;2023-08-06T03:43:10;15.02;89.23
72128;DHT22;60000;51.030;7.024;2023-08-06T03:45:36;15.03;89.22
72128;DHT22;60000;51.030;7.024;2023-08-06T03:48:01;15.00;89.33
72128;DHT22;60000;51.030;7.024;2023-08-06T03:50:26;15.02;89.35
72128;DHT22;60000;51.030;7.024;2023-08-06T03:52:52;15.02;89.50
72128;DHT22;60000;51.030;7.024;2023-08-06T03:55:17;15.00;89.53
72128;DHT22;60000;51.030;7.024;2023-08-06T03:57:42;15.00;89.73
72128;DHT22;60000;51.030;7.024;2023-08-06T04:00:08;14.99;89.77
72128;DHT22;60000;51.030;7.024;2023-08-06T04:02:33;14.96;89.84
72128;DHT22;60000;51.030;7.024;2023-08-06T04:05:00;14.95;89.96
72128;DHT22;60000;51.030;7.024;2023-08-06T04:07:25;14.96;90.03
72128;DHT22;60000;51.030;7.024;2023-08-06T04:09:59;14.93;90.12
72128;DHT22;60000;51.030;7.024;2023-08-06T04:12:25;14.92;90.26
72128;DHT22;60000;51.030;7.024;2023-08-06T04:14:51;14.88;90.40
72128;DHT22;60000;51.030;7.024;2023-08-06T04:17:20;14.88;90.48
72128;DHT22;60000;51.030;7.024;2023-08-06T04:19:51;14.86;90.62
72128;DHT22;60000;51.030;7.024;2023-08-06T04:22:17;14.86;90.76
72128;DHT22;60000;51.030;7.024;2023-08-06T04:24:42;14.85;90.84
72128;DHT22;60000;51.030;7.024;2023-08-06T04:27:09;14.83;90.96
72128;DHT22;60000;51.030;7.024;2023-08-06T04:29:34;14.83;91.12
72128;DHT22;60000;51.030;7.024;2023-08-06T04:31:59;14.83;91.23
72128;DHT22;60000;51.030;7.024;2023-08-06T04:34:25;14.79;91.28
72128;DHT22;60000;51.030;7.024;2023-08-06T04:36:50;14.81;91.38
72128;DHT22;60000;51.030;7.024;2023-08-06T04:39:15;14.78;91.40
72128;DHT22;60000;51.030;7.024;2023-08-06T04:41:41;14.82;91.58
72128;DHT22;60000;51.030;7.024;2023-08-06T04:44:06;14.85;91.67
72128;DHT22;60000;51.030;7.024;2023-08-06T04:46:31;14.85;91.75
72128;DHT22;60000;51.030;7.024;2023-08-06T04:48:56;14.86;91.62
72128;DHT22;60000;51.030;7.024;2023-08-06T04:51:22;14.85;91.57
72128;DHT22;60000;51.030;7.024;2023-08-06T04:53:47;14.88;91.64
72128;DHT22;60000;51.030;7.024;2023-08-06T04:56:12;14.89;91.77
72128;DHT22;60000;51.030;7.024;2023-08-06T04:58:38;14.88;91.62
72128;DHT22;60000;51.030;7.024;2023-08-06T05:01:03;14.92;91.74
72128;DHT22;60000;51.030;7.024;2023-08-06T05:03:28;14.96;91.90
72128;DHT22;60000;51.030;7.024;2023-08-06T05:05:54;14.96;91.75
72128;DHT22;60000;51.030;7.024;2023-08-06T05:08:19;14.98;91.83
72128;DHT22;60000;51.030;7.024;2023-08-06T05:10:45;15.00;91.92
72128;DHT22;60000;51.030;7.024;2023-08-06T05:13:11;15.02;91.93
72128;DHT22;60000;51.030;7.024;2023-08-06T05:15:36;15.02;91.87
72128;DHT22;60000;51.030;7.024;2023-08-06T05:18:01;15.09;91.89
72128;DHT22;60000;51.030;7.024;2023-08-06T05:20:27;15.12;91.91
72128;DHT22;60000;51.030;7.024;2023-08-06T05:22:52;15.16;92.02
72128;DHT22;60000;51.030;7.024;2023-08-06T05:25:17;15.20;91.87
72128;DHT22;60000;51.030;7.024;2023-08-06T05:27:42;15.24;91.96
72128;DHT22;60000;51.030;7.024;2023-08-06T05:30:08;15.29;91.85
72128;DHT22;60000;51.030;7.024;2023-08-06T05:32:34;15.30;91.74
72128;DHT22;60000;51.030;7.024;2023-08-06T05:34:59;15.31;91.70
72128;DHT22;60000;51.030;7.024;2023-08-06T05:37:24;15.40;91.79
72128;DHT22;60000;51.030;7.024;2023-08-06T05:39:50;15.39;91.55
72128;DHT22;60000;51.030;7.024;2023-08-06T05:42:16;15.39;91.31
72128;DHT22;60000;51.030;7.024;2023-08-06T05:44:41;15.40;91.24
72128;DHT22;60000;51.030;7.024;2023-08-06T05:47:06;15.40;91.02
72128;DHT22;60000;51.030;7.024;2023-08-06T05:49:32;15.41;91.10
72128;DHT22;60000;51.030;7.024;2023-08-06T05:51:57;15.41;91.05
72128;DHT22;60000;51.030;7.024;2023-08-06T05:54:22;15.41;90.87
72128;DHT22;60000;51.030;7.024;2023-08-06T05:56:47;15.43;91.15
72128;DHT22;60000;51.030;7.024;2023-08-06T05:59:13;15.47;91.18
72128;DHT22;60000;51.030;7.024;2023-08-06T06:01:38;15.49;91.04
72128;DHT22;60000;51.030;7.024;2023-08-06T06:04:03;15.53;90.97
72128;DHT22;60000;51.030;7.024;2023-08-06T06:06:29;15.55;90.96
72128;DHT22;60000;51.030;7.024;2023-08-06T06:08:54;15.60;90.98
72128;DHT22;60000;51.030;7.024;2023-08-06T06:11:19;15.64;91.02
72128;DHT22;60000;51.030;7.024;2023-08-06T06:13:49;15.67;90.78
72128;DHT22;60000;51.030;7.024;2023-08-06T06:16:14;15.68;90.54
72128;DHT22;60000;51.030;7.024;2023-08-06T06:18:39;15.67;90.48
72128;DHT22;60000;51.030;7.024;2023-08-06T06:21:05;15.74;90.72
72128;DHT22;60000;51.030;7.024;2023-08-06T06:23:30;15.75;90.40
72128;DHT22;60000;51.030;7.024;2023-08-06T06:25:55;15.81;90.25
72128;DHT22;60000;51.030;7.024;2023-08-06T06:28:21;15.82;90.20
72128;DHT22;60000;51.030;7.024;2023-08-06T06:30:46;15.85;90.26
72128;DHT22;60000;51.030;7.024;2023-08-06T06:33:11;15.90;90.26
72128;DHT22;60000;51.030;7.024;2023-08-06T06:35:37;15.92;89.93
72128;DHT22;60000;51.030;7.024;2023-08-06T06:38:02;15.97;90.22
72128;DHT22;60000;51.030;7.024;2023-08-06T06:40:28;16.01;90.01
72128;DHT22;60000;51.030;7.024;2023-08-06T06:42:53;16.05;89.70
72128;DHT22;60000;51.030;7.024;2023-08-06T06:45:18;16.05;89.81
72128;DHT22;60000;51.030;7.024;2023-08-06T06:47:44;16.08;89.51
72128;DHT22;60000;51.030;7.024;2023-08-06T06:50:09;16.11;89.39
72128;DHT22;60000;51.030;7.024;2023-08-06T06:52:34;16.15;89.56
72128;DHT22;60000;51.030;7.024;2023-08-06T06:55:00;16.18;89.68
72128;DHT22;60000;51.030;7.024;2023-08-06T06:57:25;16.23;89.51
72128;DHT22;60000;51.030;7.024;2023-08-06T06:59:51;16.30;89.63
72128;DHT22;60000;51.030;7.024;2023-08-06T07:02:16;16.33;89.50
72128;DHT22;60000;51.030;7.024;2023-08-06T07:04:41;16.40;89.49
72128;DHT22;60000;51.030;7.024;2023-08-06T07:07:07;16.40;88.97
72128;DHT22;60000;51.030;7.024;2023-08-06T07:09:32;16.46;88.77
72128;DHT22;60000;51.030;7.024;2023-08-06T07:11:57;16.48;88.99
72128;DHT22;60000;51.030;7.024;2023-08-06T07:14:25;16.49;88.47
72128;DHT22;60000;51.030;7.024;2023-08-06T07:16:50;16.53;88.59
72128;DHT22;60000;51.030;7.024;2023-08-06T07:19:16;16.59;88.62
72128;DHT22;60000;51.030;7.024;2023-08-06T07:21:41;16.67;88.63
72128;DHT22;60000;51.030;7.024;2023-08-06T07:24:06;16.71;88.46
72128;DHT22;60000;51.030;7.024;2023-08-06T07:26:32;16.74;88.18
72128;DHT22;60000;51.030;7.024;2023-08-06T07:28:57;16.76;87.78
72128;DHT22;60000;51.030;7.024;2023-08-06T07:31:22;16.74;87.31
72128;DHT22;60000;51.030;7.024;2023-08-06T07:33:47;16.71;87.18
72128;DHT22;60000;51.030;7.024;2023-08-06T07:36:14;16.81;87.66
72128;DHT22;60000;51.030;7.024;2023-08-06T07:38:40;16.91;87.74
72128;DHT22;60000;51.030;7.024;2023-08-06T07:41:05;16.94;87.43
72128;DHT22;60000;51.030;7.024;2023-08-06T07:43:31;16.94;87.20
72128;DHT22;60000;51.030;7.024;2023-08-06T07:46:00;16.92;87.06
72128;DHT22;60000;51.030;7.024;2023-08-06T07:48:26;16.85;86.69
72128;DHT22;60000;51.030;7.024;2023-08-06T07:50:55;16.80;86.48
72128;DHT22;60000;51.030;7.024;2023-08-06T07:53:24;16.74;86.52
72128;DHT22;60000;51.030;7.024;2023-08-06T07:55:53;16.76;86.59
72128;DHT22;60000;51.030;7.024;2023-08-06T07:58:19;16.76;86.94
72128;DHT22;60000;51.030;7.024;2023-08-06T08:00:45;16.77;86.92
72128;DHT22;60000;51.030;7.024;2023-08-06T08:03:14;16.71;86.97
72128;DHT22;60000;51.030;7.024;2023-08-06T08:05:40;16.70;87.11
72128;DHT22;60000;51.030;7.024;2023-08-06T08:08:06;16.66;87.46
72128;DHT22;60000;51.030;7.024;2023-08-06T08:10:32;16.66;87.53
72128;DHT22;60000;51.030;7.024;2023-08-06T08:12:57;16.67;87.64
72128;DHT22;60000;51.030;7.024;2023-08-06T08:15:24;16.71;88.19
72128;DHT22;60000;51.030;7.024;2023-08-06T08:17:51;16.71;87.99
72128;DHT22;60000;51.030;7.024;2023-08-06T08:20:17;16.71;88.10
72128;DHT22;60000;51.030;7.024;2023-08-06T08:22:42;16.71;88.26
72128;DHT22;60000;51.030;7.024;2023-08-06T08:25:07;16.80;88.59
72128;DHT22;60000;51.030;7.024;2023-08-06T08:27:33;16.83;88.29
72128;DHT22;60000;51.030;7.024;2023-08-06T08:29:58;16.83;88.38
72128;DHT22;60000;51.030;7.024;2023-08-06T08:32:23;16.81;88.20
72128;DHT22;60000;51.030;7.024;2023-08-06T08:34:49;16.81;88.11
72128;DHT22;60000;51.030;7.024;2023-08-06T08:37:14;16.79;88.12
72128;DHT22;60000;51.030;7.024;2023-08-06T08:39:39;16.79;88.30
72128;DHT22;60000;51.030;7.024;2023-08-06T08:42:05;16.80;88.42
72128;DHT22;60000;51.030;7.024;2023-08-06T08:44:32;16.81;88.67
72128;DHT22;60000;51.030;7.024;2023-08-06T08:46:59;16.88;88.87
72128;DHT22;60000;51.030;7.024;2023-08-06T08:49:26;16.97;89.08
72128;DHT22;60000;51.030;7.024;2023-08-06T08:51:53;17.11;89.27
72128;DHT22;60000;51.030;7.024;2023-08-06T08:54:18;17.21;89.48
72128;DHT22;60000;51.030;7.024;2023-08-06T08:56:45;17.29;88.87
72128;DHT22;60000;51.030;7.024;2023-08-06T08:59:10;17.36;88.95
72128;DHT22;60000;51.030;7.024;2023-08-06T09:01:37;17.48;88.97
72128;DHT22;60000;51.030;7.024;2023-08-06T09:04:04;17.61;88.33
72128;DHT22;60000;51.030;7.024;2023-08-06T09:06:33;17.59;87.77
72128;DHT22;60000;51.030;7.024;2023-08-06T09:09:08;17.56;87.05
72128;DHT22;60000;51.030;7.024;2023-08-06T09:11:37;17.62;87.31
72128;DHT22;60000;51.030;7.024;2023-08-06T09:14:09;17.63;87.08
72128;DHT22;60000;51.030;7.024;2023-08-06T09:16:35;17.75;87.37
72128;DHT22;60000;51.030;7.024;2023-08-06T09:19:11;17.79;87.01
72128;DHT22;60000;51.030;7.024;2023-08-06T09:21:43;17.79;86.53
72128;DHT22;60000;51.030;7.024;2023-08-06T09:24:08;17.77;86.18
72128;DHT22;60000;51.030;7.024;2023-08-06T09:26:34;17.82;86.68
72128;DHT22;60000;51.030;7.024;2023-08-06T09:28:59;17.83;86.62
72128;DHT22;60000;51.030;7.024;2023-08-06T09:31:32;17.86;86.20
72128;DHT22;60000;51.030;7.024;2023-08-06T09:33:59;17.93;86.54
72128;DHT22;60000;51.030;7.024;2023-08-06T09:36:25;18.06;86.60
72128;DHT22;60000;51.030;7.024;2023-08-06T09:38:50;18.14;86.09
72128;DHT22;60000;51.030;7.024;2023-08-06T09:41:26;18.27;86.20
72128;DHT22;60000;51.030;7.024;2023-08-06T09:43:52;18.41;85.90
72128;DHT22;60000;51.030;7.024;2023-08-06T09:46:18;18.62;86.09
72128;DHT22;60000;51.030;7.024;2023-08-06T09:48:46;18.88;85.02
72128;DHT22;60000;51.030;7.024;2023-08-06T09:51:13;19.28;84.91
72128;DHT22;60000;51.030;7.024;2023-08-06T09:53:40;19.47;83.86
72128;DHT22;60000;51.030;7.024;2023-08-06T09:56:05;19.46;82.52
72128;DHT22;60000;51.030;7.024;2023-08-06T09:58:32;19.68;81.80
72128;DHT22;60000;51.030;7.024;2023-08-06T10:00:59;19.71;80.17
72128;DHT22;60000;51.030;7.024;2023-08-06T10:03:25;19.82;79.60
72128;DHT22;60000;51.030;7.024;2023-08-06T10:05:52;19.98;78.19
72128;DHT22;60000;51.030;7.024;2023-08-06T10:08:20;19.86;77.98
72128;DHT22;60000;51.030;7.024;2023-08-06T10:10:45;19.71;78.15
72128;DHT22;60000;51.030;7.024;2023-08-06T10:13:12;19.55;78.81
72128;DHT22;60000;51.030;7.024;2023-08-06T10:15:39;19.37;79.81
72128;DHT22;60000;51.030;7.024;2023-08-06T10:18:05;18.92;78.73
72128;DHT22;60000;51.030;7.024;2023-08-06T10:20:35;18.47;80.55
72128;DHT22;60000;51.030;7.024;2023-08-06T10:23:04;17.90;81.39
72128;DHT22;60000;51.030;7.024;2023-08-06T10:25:31;17.56;82.55
72128;DHT22;60000;51.030;7.024;2023-08-06T10:27:58;17.34;83.03
72128;DHT22;60000;51.030;7.024;2023-08-06T10:30:31;17.12;84.13
72128;DHT22;60000;51.030;7.024;2023-08-06T10:33:01;17.03;85.00
72128;DHT22;60000;51.030;7.024;2023-08-06T10:38:17;16.69;85.95
72128;DHT22;60000;51.030;7.024;2023-08-06T10:40:52;16.61;87.04
72128;DHT22;60000;51.030;7.024;2023-08-06T10:45:52;16.46;87.59
72128;DHT22;60000;51.030;7.024;2023-08-06T10:48:45;16.32;87.10
72128;DHT22;60000;51.030;7.024;2023-08-06T10:51:12;16.22;87.56
72128;DHT22;60000;51.030;7.024;2023-08-06T10:53:49;16.16;88.01
72128;DHT22;60000;51.030;7.024;2023-08-06T10:56:16;16.13;87.95
72128;DHT22;60000;51.030;7.024;2023-08-06T10:58:45;16.04;87.85
72128;DHT22;60000;51.030;7.024;2023-08-06T11:01:11;15.95;88.12
72128;DHT22;60000;51.030;7.024;2023-08-06T11:03:37;15.85;88.39
72128;DHT22;60000;51.030;7.024;2023-08-06T11:06:03;15.84;88.85
72128;DHT22;60000;51.030;7.024;2023-08-06T11:08:33;15.81;89.00
72128;DHT22;60000;51.030;7.024;2023-08-06T11:11:09;15.75;88.39
72128;DHT22;60000;51.030;7.024;2023-08-06T11:13:48;15.58;88.66
72128;DHT22;60000;51.030;7.024;2023-08-06T11:16:18;15.53;88.91
72128;DHT22;60000;51.030;7.024;2023-08-06T11:18:44;15.50;88.92
72128;DHT22;60000;51.030;7.024;2023-08-06T11:21:10;15.39;88.97
72128;DHT22;60000;51.030;7.024;2023-08-06T11:23:37;15.37;89.52
72128;DHT22;60000;51.030;7.024;2023-08-06T11:26:02;15.39;89.80
72128;DHT22;60000;51.030;7.024;2023-08-06T11:28:28;15.33;89.49
72128;DHT22;60000;51.030;7.024;2023-08-06T11:30:54;15.30;89.76
72128;DHT22;60000;51.030;7.024;2023-08-06T11:33:22;15.30;89.87
72128;DHT22;60000;51.030;7.024;2023-08-06T11:35:48;15.24;89.16
72128;DHT22;60000;51.030;7.024;2023-08-06T11:38:14;15.16;89.24
72128;DHT22;60000;51.030;7.024;2023-08-06T11:40:39;15.09;89.67
72128;DHT22;60000;51.030;7.024;2023-08-06T11:43:08;15.02;89.80
72128;DHT22;60000;51.030;7.024;2023-08-06T11:45:35;14.96;89.83
72128;DHT22;60000;51.030;7.024;2023-08-06T11:48:01;15.00;90.66
72128;DHT22;60000;51.030;7.024;2023-08-06T11:50:26;14.95;90.31
72128;DHT22;60000;51.030;7.024;2023-08-06T11:52:57;14.96;89.87
72128;DHT22;60000;51.030;7.024;2023-08-06T11:55:24;14.92;89.86
72128;DHT22;60000;51.030;7.024;2023-08-06T11:57:49;14.88;90.34
72128;DHT22;60000;51.030;7.024;2023-08-06T12:00:15;14.89;90.32
72128;DHT22;60000;51.030;7.024;2023-08-06T12:02:44;14.91;90.60
72128;DHT22;60000;51.030;7.024;2023-08-06T12:07:40;14.96;90.27
72128;DHT22;60000;51.030;7.024;2023-08-06T12:10:07;14.96;90.33
72128;DHT22;60000;51.030;7.024;2023-08-06T12:12:32;14.99;90.29
72128;DHT22;60000;51.030;7.024;2023-08-06T12:14:58;15.00;90.37
72128;DHT22;60000;51.030;7.024;2023-08-06T12:17:24;15.06;90.48
72128;DHT22;60000;51.030;7.024;2023-08-06T12:19:50;15.04;90.37
72128;DHT22;60000;51.030;7.024;2023-08-06T12:22:16;15.09;90.36
72128;DHT22;60000;51.030;7.024;2023-08-06T12:24:45;15.06;89.92
72128;DHT22;60000;51.030;7.024;2023-08-06T12:27:11;15.07;90.20
72128;DHT22;60000;51.030;7.024;2023-08-06T12:29:48;15.10;90.33
72128;DHT22;60000;51.030;7.024;2023-08-06T12:32:14;15.14;90.16
72128;DHT22;60000;51.030;7.024;2023-08-06T12:34:41;15.16;90.05
72128;DHT22;60000;51.030;7.024;2023-08-06T12:37:07;15.19;90.03
72128;DHT22;60000;51.030;7.024;2023-08-06T12:39:33;15.24;89.94
72128;DHT22;60000;51.030;7.024;2023-08-06T12:41:59;15.34;89.15
72128;DHT22;60000;51.030;7.024;2023-08-06T12:44:25;15.40;89.27
72128;DHT22;60000;51.030;7.024;2023-08-06T12:46:51;15.40;89.45
72128;DHT22;60000;51.030;7.024;2023-08-06T12:49:17;15.44;89.14
72128;DHT22;60000;51.030;7.024;2023-08-06T12:51:43;15.46;89.32
72128;DHT22;60000;51.030;7.024;2023-08-06T12:54:08;15.47;88.82
72128;DHT22;60000;51.030;7.024;2023-08-06T12:56:34;15.49;88.28
72128;DHT22;60000;51.030;7.024;2023-08-06T12:58:59;15.50;88.29
72128;DHT22;60000;51.030;7.024;2023-08-06T13:01:25;15.51;88.27
72128;DHT22;60000;51.030;7.024;2023-08-06T13:03:50;15.54;88.23
72128;DHT22;60000;51.030;7.024;2023-08-06T13:06:15;15.60;88.08
72128;DHT22;60000;51.030;7.024;2023-08-06T13:08:40;15.58;87.69
72128;DHT22;60000;51.030;7.024;2023-08-06T13:11:06;15.60;87.40
72128;DHT22;60000;51.030;7.024;2023-08-06T13:13:31;15.60;87.61
72128;DHT22;60000;51.030;7.024;2023-08-06T13:15:56;15.62;87.55
72128;DHT22;60000;51.030;7.024;2023-08-06T13:18:22;15.65;87.13
72128;DHT22;60000;51.030;7.024;2023-08-06T13:20:47;15.67;86.78
72128;DHT22;60000;51.030;7.024;2023-08-06T13:23:14;15.71;86.74
72128;DHT22;60000;51.030;7.024;2023-08-06T13:25:42;15.72;86.71
72128;DHT22;60000;51.030;7.024;2023-08-06T13:28:07;15.78;86.92
72128;DHT22;60000;51.030;7.024;2023-08-06T13:30:33;15.87;87.12
72128;DHT22;60000;51.030;7.024;2023-08-06T13:33:00;15.88;86.66
72128;DHT22;60000;51.030;7.024;2023-08-06T13:35:26;15.88;86.46
72128;DHT22;60000;51.030;7.024;2023-08-06T13:37:51;15.91;86.57
72128;DHT22;60000;51.030;7.024;2023-08-06T13:40:17;15.92;86.00
72128;DHT22;60000;51.030;7.024;2023-08-06T13:42:42;15.91;85.56
72128;DHT22;60000;51.030;7.024;2023-08-06T13:45:08;15.91;85.58
72128;DHT22;60000;51.030;7.024;2023-08-06T13:47:33;15.92;85.06
72128;DHT22;60000;51.030;7.024;2023-08-06T13:49:59;15.91;84.65
72128;DHT22;60000;51.030;7.024;2023-08-06T13:52:27;15.95;84.68
72128;DHT22;60000;51.030;7.024;2023-08-06T13:54:53;15.98;83.92
72128;DHT22;60000;51.030;7.024;2023-08-06T13:57:18;16.01;84.13
72128;DHT22;60000;51.030;7.024;2023-08-06T13:59:43;16.06;84.56
72128;DHT22;60000;51.030;7.024;2023-08-06T14:02:10;16.19;84.65
72128;DHT22;60000;51.030;7.024;2023-08-06T14:04:35;16.19;84.49
72128;DHT22;60000;51.030;7.024;2023-08-06T14:07:02;16.25;84.50
72128;DHT22;60000;51.030;7.024;2023-08-06T14:09:28;16.32;84.39
72128;DHT22;60000;51.030;7.024;2023-08-06T14:11:53;16.38;84.19
72128;DHT22;60000;51.030;7.024;2023-08-06T14:14:19;16.43;84.24
72128;DHT22;60000;51.030;7.024;2023-08-06T14:16:45;16.50;84.75
72128;DHT22;60000;51.030;7.024;2023-08-06T14:19:10;16.55;84.81
72128;DHT22;60000;51.030;7.024;2023-08-06T14:21:36;16.64;85.05
72128;DHT22;60000;51.030;7.024;2023-08-06T14:24:01;16.63;84.63
72128;DHT22;60000;51.030;7.024;2023-08-06T14:26:26;16.57;84.14
72128;DHT22;60000;51.030;7.024;2023-08-06T14:28:51;16.59;84.63
72128;DHT22;60000;51.030;7.024;2023-08-06T14:31:20;16.63;84.75
72128;DHT22;60000;51.030;7.024;2023-08-06T14:33:45;16.64;84.89
72128;DHT22;60000;51.030;7.024;2023-08-06T14:36:11;16.57;84.75
72128;DHT22;60000;51.030;7.024;2023-08-06T14:38:36;16.52;85.04
72128;DHT22;60000;51.030;7.024;2023-08-06T14:41:01;16.43;85.20
72128;DHT22;60000;51.030;7.024;2023-08-06T14:43:27;16.29;84.96
72128;DHT22;60000;51.030;7.024;2023-08-06T14:45:52;16.15;85.49
72128;DHT22;60000;51.030;7.024;2023-08-06T14:48:17;16.04;86.14
72128;DHT22;60000;51.030;7.024;2023-08-06T14:50:44;15.91;86.56
72128;DHT22;60000;51.030;7.024;2023-08-06T14:53:09;15.81;87.21
72128;DHT22;60000;51.030;7.024;2023-08-06T14:55:37;15.68;87.56
72128;DHT22;60000;51.030;7.024;2023-08-06T14:58:02;15.60;88.05
72128;DHT22;60000;51.030;7.024;2023-08-06T15:00:28;15.58;88.71
72128;DHT22;60000;51.030;7.024;2023-08-06T15:02:53;15.47;88.82
72128;DHT22;60000;51.030;7.024;2023-08-06T15:05:18;15.44;89.30
72128;DHT22;60000;51.030;7.024;2023-08-06T15:07:44;15.41;89.59
72128;DHT22;60000;51.030;7.024;2023-08-06T15:10:09;15.37;89.85
72128;DHT22;60000;51.030;7.024;2023-08-06T15:12:35;15.37;89.94
72128;DHT22;60000;51.030;7.024;2023-08-06T15:15:00;15.37;90.14
72128;DHT22;60000;51.030;7.024;2023-08-06T15:17:26;15.41;90.05
72128;DHT22;60000;51.030;7.024;2023-08-06T15:19:55;15.41;90.34
72128;DHT22;60000;51.030;7.024;2023-08-06T15:22:21;15.41;90.31
72128;DHT22;60000;51.030;7.024;2023-08-06T15:24:46;15.40;90.33
72128;DHT22;60000;51.030;7.024;2023-08-06T15:27:11;15.39;90.44
72128;DHT22;60000;51.030;7.024;2023-08-06T15:29:37;15.37;90.73
72128;DHT22;60000;51.030;7.024;2023-08-06T15:32:03;15.34;90.67
72128;DHT22;60000;51.030;7.024;2023-08-06T15:34:28;15.36;90.75
72128;DHT22;60000;51.030;7.024;2023-08-06T15:36:54;15.34;90.89